Check out our new BloomSky Weather System.

Active alerts


No alerts


Thunder radar  blitzortung!


Rain radar more information rain snow radar


Visit our other weather sites:

Template documentation
and downloads

And another site



Weather Underground History page Text

Daily Summary for January 22, 2017 Units:  English    Metric   Both
« Previous Day
Next Day »
Daily Weekly Monthly Yearly Custom
  High: Low: Average:
Temperature: 67.6 °F 55.6 °F 61.7 °F
Dew Point: 55.6 °F 38.5 °F 45.7 °F
Humidity: 90 % 44 % 57 %
Wind Speed: 24.0 mph 0.0 mph 5 mph
Wind Gust: 28.0 mph - -
Wind:- - WSW
Pressure: 29.90 in 29.52 in -
Precipitation: 0.03 in    
Historical Graphs
 
 
Tabular Data for January 22, 2017
Time Temperature Dew Point Pressure Wind Wind Speed Wind Gust Humidity Rainfall Rate (Hourly)
00:00 62.4 °F 53.6 °F 29.57 in NW 3.0 mph 6.0 mph 73 % 0.01 in
00:05 62.1 °F 54.0 °F 29.55 in Calm   6.0 mph 75 % 0.03 in
00:10 61.3 °F 53.8 °F 29.56 in Calm   6.0 mph 76 % 0.03 in
00:15 61.2 °F 54.9 °F 29.55 in Calm   4.0 mph 80 % 0.03 in
00:20 60.3 °F 54.7 °F 29.55 in Calm   2.0 mph 82 % 0.03 in
00:25 59.7 °F 54.9 °F 29.54 in ESE 1.0 mph 2.0 mph 84 % 0.03 in
00:30 59.5 °F 55.4 °F 29.54 in SSE 1.0 mph 2.0 mph 86 % 0.03 in
00:35 59.2 °F 55.4 °F 29.55 in Calm   2.0 mph 87 % 0.03 in
00:40 58.6 °F 54.9 °F 29.55 in Calm   2.0 mph 87 % 0.03 in
00:45 58.5 °F 54.9 °F 29.55 in Calm   2.0 mph 88 % 0.03 in
00:50 58.3 °F 55.0 °F 29.55 in Calm   1.0 mph 89 % 0.03 in
00:55 58.1 °F 54.9 °F 29.54 in Calm   1.0 mph 89 % 0.03 in
01:00 58.3 °F 55.4 °F 29.55 in Calm   3.0 mph 90 % 0.02 in
01:05 58.1 °F 55.2 °F 29.56 in SSW 2.0 mph 4.0 mph 90 % 0.00 in
01:10 58.3 °F 55.4 °F 29.57 in South 4.0 mph 4.0 mph 90 % 0.00 in
01:15 58.5 °F 55.2 °F 29.56 in SE 1.0 mph 6.0 mph 89 % 0.00 in
01:20 58.8 °F 55.6 °F 29.55 in Calm   6.0 mph 89 % 0.01 in
01:25 58.8 °F 55.2 °F 29.56 in SW 1.0 mph 6.0 mph 88 % 0.01 in
01:30 58.6 °F 55.4 °F 29.57 in Calm   2.0 mph 89 % 0.01 in
01:35 58.5 °F 55.2 °F 29.56 in Calm   2.0 mph 89 % 0.01 in
01:40 58.3 °F 54.5 °F 29.54 in Calm   3.0 mph 87 % 0.01 in
01:45 58.3 °F 54.1 °F 29.54 in SSW 1.0 mph 3.0 mph 86 % 0.01 in
01:50 58.5 °F 54.0 °F 29.53 in Calm   3.0 mph 85 % 0.01 in
01:55 58.6 °F 53.8 °F 29.54 in Calm   1.0 mph 84 % 0.01 in
02:00 58.6 °F 53.4 °F 29.53 in Calm   1.0 mph 83 % 0.01 in
02:05 58.6 °F 53.4 °F 29.52 in Calm   1.0 mph 83 % 0.01 in
02:10 58.6 °F 53.4 °F 29.52 in Calm   1.0 mph 83 % 0.01 in
02:15 58.8 °F 54.0 °F 29.53 in Calm   2.0 mph 84 % 0.01 in
02:20 58.6 °F 54.1 °F 29.54 in Calm   2.0 mph 85 % 0.00 in
02:25 58.5 °F 54.0 °F 29.54 in Calm   2.0 mph 85 % 0.00 in
02:30 58.3 °F 53.8 °F 29.55 in Calm   2.0 mph 85 % 0.00 in
02:35 58.3 °F 53.4 °F 29.55 in West 1.0 mph 2.0 mph 84 % 0.00 in
02:40 58.3 °F 53.4 °F 29.56 in Calm   2.0 mph 84 % 0.00 in
02:45 58.3 °F 53.1 °F 29.53 in Calm   2.0 mph 83 % 0.00 in
02:50 58.3 °F 52.9 °F 29.53 in Calm   2.0 mph 82 % 0.00 in
02:55 58.3 °F 52.9 °F 29.54 in WSW 2.0 mph 4.0 mph 82 % 0.00 in
03:00 58.6 °F 51.8 °F 29.55 in West 2.0 mph 7.0 mph 78 % 0.00 in
03:05 59.0 °F 51.1 °F 29.55 in Calm   7.0 mph 75 % 0.00 in
03:11 59.4 °F 50.4 °F 29.55 in South 1.0 mph 7.0 mph 72 % 0.00 in
03:16 59.7 °F 50.0 °F 29.55 in West 4.0 mph 5.0 mph 70 % 0.00 in
03:21 60.3 °F 47.7 °F 29.55 in SW 1.0 mph 13.0 mph 63 % 0.00 in
03:26 60.6 °F 46.6 °F 29.55 in SW 3.0 mph 13.0 mph 60 % 0.00 in
03:31 61.2 °F 45.3 °F 29.55 in WNW 3.0 mph 13.0 mph 56 % 0.00 in
03:36 61.2 °F 44.4 °F 29.55 in West 3.0 mph 10.0 mph 54 % 0.00 in
03:42 61.2 °F 44.8 °F 29.55 in SW 1.0 mph 10.0 mph 55 % 0.00 in
03:47 61.2 °F 43.3 °F 29.55 in East 4.0 mph 10.0 mph 52 % 0.00 in
03:52 61.3 °F 43.0 °F 29.54 in SW 3.0 mph 10.0 mph 51 % 0.00 in
03:57 61.2 °F 43.3 °F 29.54 in WSW 2.0 mph 9.0 mph 52 % 0.00 in
04:02 61.2 °F 43.0 °F 29.54 in West 2.0 mph 9.0 mph 51 % 0.00 in
04:07 61.0 °F 42.8 °F 29.54 in South 3.0 mph 8.0 mph 51 % 0.00 in
04:12 60.6 °F 42.4 °F 29.54 in East 3.0 mph 6.0 mph 51 % 0.00 in
04:17 60.6 °F 43.0 °F 29.54 in SW 4.0 mph 6.0 mph 52 % 0.00 in
04:22 60.4 °F 43.2 °F 29.54 in West 1.0 mph 6.0 mph 53 % 0.00 in
04:27 60.1 °F 42.4 °F 29.54 in SSE 2.0 mph 6.0 mph 52 % 0.00 in
04:32 60.1 °F 41.9 °F 29.55 in SW 1.0 mph 11.0 mph 51 % 0.00 in
04:37 59.7 °F 41.5 °F 29.55 in NNW 2.0 mph 11.0 mph 51 % 0.00 in
04:42 59.5 °F 41.4 °F 29.55 in WSW 2.0 mph 11.0 mph 51 % 0.00 in
04:47 59.4 °F 41.2 °F 29.55 in SSW 2.0 mph 7.0 mph 51 % 0.00 in
04:52 59.0 °F 40.8 °F 29.55 in SSW 2.0 mph 6.0 mph 51 % 0.00 in
04:57 58.6 °F 41.0 °F 29.55 in Calm   6.0 mph 52 % 0.00 in
05:02 58.3 °F 40.8 °F 29.55 in SSW 1.0 mph 6.0 mph 52 % 0.00 in
05:07 57.9 °F 40.8 °F 29.54 in WSW 2.0 mph 6.0 mph 53 % 0.00 in
05:12 57.7 °F 40.6 °F 29.54 in Calm   5.0 mph 53 % 0.00 in
05:17 57.4 °F 40.8 °F 29.54 in SW 2.0 mph 4.0 mph 54 % 0.00 in
05:22 57.2 °F 40.6 °F 29.54 in SW 1.0 mph 4.0 mph 54 % 0.00 in
05:27 57.2 °F 40.3 °F 29.54 in SSW 5.0 mph 5.0 mph 53 % 0.00 in
05:32 57.0 °F 40.5 °F 29.54 in South 2.0 mph 6.0 mph 54 % 0.00 in
05:37 56.8 °F 40.5 °F 29.55 in SW 2.0 mph 6.0 mph 54 % 0.00 in
05:42 56.8 °F 40.5 °F 29.55 in SW 1.0 mph 6.0 mph 54 % 0.00 in
05:47 56.8 °F 40.5 °F 29.55 in WSW 4.0 mph 6.0 mph 54 % 0.00 in
05:52 56.8 °F 40.5 °F 29.55 in SW 1.0 mph 6.0 mph 54 % 0.00 in
05:57 56.5 °F 40.1 °F 29.55 in SW 1.0 mph 6.0 mph 54 % 0.00 in
06:02 56.5 °F 40.1 °F 29.55 in SW 1.0 mph 6.0 mph 54 % 0.00 in
06:07 56.5 °F 40.5 °F 29.55 in WSW 1.0 mph 6.0 mph 55 % 0.00 in
06:12 56.5 °F 40.1 °F 29.55 in SSE 4.0 mph 6.0 mph 54 % 0.00 in
06:17 56.5 °F 40.1 °F 29.54 in WSW 2.0 mph 7.0 mph 54 % 0.00 in
06:22 56.5 °F 40.1 °F 29.55 in West 3.0 mph 7.0 mph 54 % 0.00 in
06:27 56.3 °F 39.9 °F 29.55 in SW 2.0 mph 7.0 mph 54 % 0.00 in
06:32 56.1 °F 40.1 °F 29.55 in SSE 4.0 mph 6.0 mph 55 % 0.00 in
06:37 56.1 °F 40.1 °F 29.55 in SSW 1.0 mph 6.0 mph 55 % 0.00 in
06:42 55.9 °F 39.6 °F 29.55 in WSW 3.0 mph 7.0 mph 54 % 0.00 in
06:47 55.9 °F 39.9 °F 29.55 in WNW 3.0 mph 7.0 mph 55 % 0.00 in
06:52 55.9 °F 39.6 °F 29.55 in SW 3.0 mph 7.0 mph 54 % 0.00 in
06:57 55.9 °F 39.6 °F 29.55 in SW 2.0 mph 7.0 mph 54 % 0.00 in
07:02 55.9 °F 39.6 °F 29.55 in South 2.0 mph 7.0 mph 54 % 0.00 in
07:07 55.8 °F 39.4 °F 29.55 in Calm   7.0 mph 54 % 0.00 in
07:12 55.8 °F 39.9 °F 29.55 in Calm   8.0 mph 55 % 0.00 in
07:17 55.6 °F 40.1 °F 29.55 in SW 3.0 mph 8.0 mph 56 % 0.00 in
07:22 55.6 °F 39.7 °F 29.55 in Calm   8.0 mph 55 % 0.00 in
07:27 55.8 °F 39.9 °F 29.55 in West 6.0 mph 8.0 mph 55 % 0.00 in
07:32 55.9 °F 39.6 °F 29.55 in SSW 3.0 mph 9.0 mph 54 % 0.00 in
07:37 56.1 °F 39.2 °F 29.55 in WSW 4.0 mph 9.0 mph 53 % 0.00 in
07:42 56.5 °F 39.0 °F 29.55 in SW 9.0 mph 9.0 mph 52 % 0.00 in
07:47 57.0 °F 38.5 °F 29.55 in WSW 4.0 mph 11.0 mph 50 % 0.00 in
07:52 57.6 °F 39.0 °F 29.55 in West 2.0 mph 11.0 mph 50 % 0.00 in
07:57 57.9 °F 38.8 °F 29.55 in SW 6.0 mph 11.0 mph 49 % 0.00 in
08:02 58.3 °F 38.7 °F 29.55 in West 3.0 mph 16.0 mph 48 % 0.00 in
08:07 58.6 °F 39.0 °F 29.55 in WSW 6.0 mph 16.0 mph 48 % 0.00 in
08:12 59.2 °F 39.6 °F 29.55 in West 7.0 mph 16.0 mph 48 % 0.00 in
08:17 59.4 °F 38.7 °F 29.55 in WSW 6.0 mph 14.0 mph 46 % 0.00 in
08:22 59.5 °F 39.4 °F 29.55 in NW 2.0 mph 12.0 mph 47 % 0.00 in
08:27 59.7 °F 39.4 °F 29.55 in SW 8.0 mph 14.0 mph 47 % 0.00 in
08:32 60.1 °F 39.2 °F 29.55 in SW 6.0 mph 14.0 mph 46 % 0.00 in
08:37 60.3 °F 39.9 °F 29.55 in WSW 6.0 mph 17.0 mph 47 % 0.00 in
08:42 60.4 °F 40.1 °F 29.55 in North 8.0 mph 17.0 mph 47 % 0.00 in
08:47 60.6 °F 40.3 °F 29.55 in WSW 2.0 mph 17.0 mph 47 % 0.00 in
08:52 61.0 °F 40.1 °F 29.55 in WSW 1.0 mph 16.0 mph 46 % 0.00 in
08:57 61.2 °F 40.3 °F 29.56 in South 2.0 mph 15.0 mph 46 % 0.00 in
09:02 61.3 °F 39.2 °F 29.56 in SSW 10.0 mph 15.0 mph 44 % 0.00 in
09:07 61.3 °F 39.2 °F 29.56 in NW 3.0 mph 15.0 mph 44 % 0.00 in
09:12 61.3 °F 39.7 °F 29.56 in WSW 6.0 mph 15.0 mph 45 % 0.00 in
09:17 61.5 °F 39.9 °F 29.56 in West 4.0 mph 15.0 mph 45 % 0.00 in
09:22 61.9 °F 40.3 °F 29.56 in NW 3.0 mph 11.0 mph 45 % 0.00 in
09:27 62.1 °F 39.9 °F 29.57 in NW 6.0 mph 11.0 mph 44 % 0.00 in
09:32 62.2 °F 41.7 °F 29.57 in WSW 7.0 mph 16.0 mph 47 % 0.00 in
09:37 62.4 °F 41.4 °F 29.57 in SW 7.0 mph 16.0 mph 46 % 0.00 in
09:42 62.8 °F 41.7 °F 29.58 in SSW 5.0 mph 16.0 mph 46 % 0.00 in
09:47 63.3 °F 42.3 °F 29.58 in SSW 2.0 mph 14.0 mph 46 % 0.00 in
09:52 63.9 °F 42.1 °F 29.58 in West 8.0 mph 11.0 mph 45 % 0.00 in
09:57 63.5 °F 41.7 °F 29.58 in West 6.0 mph 15.0 mph 45 % 0.00 in
10:02 63.5 °F 42.3 °F 29.59 in West 4.0 mph 21.0 mph 46 % 0.00 in
10:07 63.1 °F 42.6 °F 29.58 in WNW 12.0 mph 21.0 mph 47 % 0.00 in
10:12 63.3 °F 42.8 °F 29.58 in WNW 6.0 mph 21.0 mph 47 % 0.00 in
10:17 63.7 °F 43.2 °F 29.59 in SW 2.0 mph 18.0 mph 47 % 0.00 in
10:22 63.9 °F 43.2 °F 29.59 in SW 5.0 mph 18.0 mph 47 % 0.00 in
10:27 63.9 °F 43.7 °F 29.59 in WNW 5.0 mph 19.0 mph 48 % 0.00 in
10:32 63.9 °F 43.7 °F 29.59 in West 13.0 mph 20.0 mph 48 % 0.00 in
10:37 63.9 °F 44.2 °F 29.59 in SW 6.0 mph 24.0 mph 49 % 0.00 in
10:42 63.7 °F 44.8 °F 29.60 in NNE 5.0 mph 24.0 mph 50 % 0.00 in
10:47 64.0 °F 45.0 °F 29.60 in SW 6.0 mph 24.0 mph 50 % 0.00 in
10:52 64.0 °F 44.4 °F 29.60 in WNW 15.0 mph 19.0 mph 49 % 0.00 in
10:57 64.2 °F 44.6 °F 29.61 in NW 9.0 mph 23.0 mph 49 % 0.00 in
11:02 64.4 °F 45.9 °F 29.60 in NNW 7.0 mph 23.0 mph 51 % 0.00 in
11:07 64.6 °F 46.0 °F 29.60 in West 16.0 mph 23.0 mph 51 % 0.00 in
11:12 64.4 °F 46.4 °F 29.60 in South 2.0 mph 22.0 mph 52 % 0.00 in
11:17 64.8 °F 46.8 °F 29.61 in WNW 8.0 mph 23.0 mph 52 % 0.00 in
11:22 64.9 °F 46.9 °F 29.60 in North 18.0 mph 23.0 mph 52 % 0.00 in
11:27 65.5 °F 47.8 °F 29.61 in South 9.0 mph 23.0 mph 53 % 0.00 in
11:32 65.5 °F 47.8 °F 29.60 in NNE 17.0 mph 22.0 mph 53 % 0.00 in
11:38 65.5 °F 47.5 °F 29.61 in WNW 10.0 mph 26.0 mph 52 % 0.00 in
11:43 65.5 °F 47.8 °F 29.61 in NW 6.0 mph 26.0 mph 53 % 0.00 in
11:48 66.0 °F 48.4 °F 29.61 in WNW 4.0 mph 26.0 mph 53 % 0.00 in
11:53 66.2 °F 48.0 °F 29.61 in NNE 5.0 mph 21.0 mph 52 % 0.00 in
11:58 66.6 °F 48.4 °F 29.61 in NNW 10.0 mph 21.0 mph 52 % 0.00 in
12:03 66.6 °F 48.4 °F 29.60 in North 7.0 mph 21.0 mph 52 % 0.00 in
12:08 66.9 °F 48.7 °F 29.60 in East 10.0 mph 21.0 mph 52 % 0.00 in
12:13 66.9 °F 47.7 °F 29.61 in ESE 3.0 mph 21.0 mph 50 % 0.00 in
12:18 66.9 °F 47.7 °F 29.60 in WNW 6.0 mph 21.0 mph 50 % 0.00 in
12:23 66.9 °F 47.7 °F 29.60 in ESE 9.0 mph 22.0 mph 50 % 0.00 in
12:28 66.7 °F 48.6 °F 29.60 in NW 17.0 mph 22.0 mph 52 % 0.00 in
12:33 66.6 °F 47.3 °F 29.60 in NW 7.0 mph 26.0 mph 50 % 0.00 in
12:38 66.6 °F 47.8 °F 29.60 in North 10.0 mph 26.0 mph 51 % 0.00 in
12:43 66.7 °F 48.0 °F 29.60 in NW 12.0 mph 26.0 mph 51 % 0.00 in
12:48 67.1 °F 48.4 °F 29.60 in West 14.0 mph 26.0 mph 51 % 0.00 in
12:53 67.1 °F 47.8 °F 29.60 in NW 12.0 mph 26.0 mph 50 % 0.00 in
12:58 67.1 °F 48.4 °F 29.60 in SSW 4.0 mph 23.0 mph 51 % 0.00 in
13:03 67.3 °F 49.1 °F 29.60 in WNW 6.0 mph 23.0 mph 52 % 0.00 in
13:08 67.6 °F 48.9 °F 29.60 in East 6.0 mph 20.0 mph 51 % 0.00 in
13:13 67.3 °F 48.6 °F 29.60 in NNW 12.0 mph 20.0 mph 51 % 0.00 in
13:18 67.1 °F 48.4 °F 29.60 in WNW 14.0 mph 22.0 mph 51 % 0.00 in
13:23 67.1 °F 48.9 °F 29.60 in North 8.0 mph 22.0 mph 52 % 0.00 in
13:28 67.1 °F 49.5 °F 29.60 in NW 6.0 mph 22.0 mph 53 % 0.00 in
13:33 67.1 °F 49.5 °F 29.60 in West 8.0 mph 22.0 mph 53 % 0.00 in
13:38 67.6 °F 49.8 °F 29.60 in NW 5.0 mph 19.0 mph 53 % 0.00 in
13:43 67.5 °F 49.3 °F 29.61 in NW 24.0 mph 24.0 mph 52 % 0.00 in
13:48 67.1 °F 49.5 °F 29.60 in NW 7.0 mph 24.0 mph 53 % 0.00 in
13:53 66.9 °F 49.3 °F 29.60 in NNW 5.0 mph 24.0 mph 53 % 0.00 in
13:58 66.7 °F 49.6 °F 29.60 in NNW 14.0 mph 24.0 mph 54 % 0.00 in
14:03 66.7 °F 49.6 °F 29.61 in NNW 14.0 mph 21.0 mph 54 % 0.00 in
14:08 66.7 °F 50.0 °F 29.61 in North 8.0 mph 28.0 mph 55 % 0.00 in
14:13 67.1 °F 49.8 °F 29.62 in NW 17.0 mph 28.0 mph 54 % 0.00 in
14:18 66.6 °F 49.5 °F 29.63 in NNW 7.0 mph 28.0 mph 54 % 0.00 in
14:23 66.0 °F 48.9 °F 29.62 in West 11.0 mph 23.0 mph 54 % 0.00 in
14:28 65.8 °F 49.3 °F 29.63 in WSW 6.0 mph 23.0 mph 55 % 0.00 in
14:33 65.8 °F 48.7 °F 29.64 in WNW 17.0 mph 27.0 mph 54 % 0.00 in
14:38 65.8 °F 49.3 °F 29.63 in WNW 10.0 mph 27.0 mph 55 % 0.00 in
14:43 66.4 °F 49.3 °F 29.63 in NW 11.0 mph 27.0 mph 54 % 0.00 in
14:48 66.7 °F 49.6 °F 29.63 in NW 9.0 mph 22.0 mph 54 % 0.00 in
14:53 67.1 °F 49.8 °F 29.63 in WSW 17.0 mph 22.0 mph 54 % 0.00 in
14:58 66.9 °F 48.7 °F 29.63 in NW 16.0 mph 21.0 mph 52 % 0.00 in
15:03 67.3 °F 49.6 °F 29.64 in NW 7.0 mph 26.0 mph 53 % 0.00 in
15:08 67.3 °F 49.1 °F 29.64 in WSW 10.0 mph 26.0 mph 52 % 0.00 in
15:13 66.9 °F 48.7 °F 29.65 in WNW 11.0 mph 26.0 mph 52 % 0.00 in
15:18 66.7 °F 49.1 °F 29.65 in NW 9.0 mph 21.0 mph 53 % 0.00 in
15:23 66.7 °F 49.1 °F 29.66 in WNW 9.0 mph 23.0 mph 53 % 0.00 in
15:28 66.6 °F 49.5 °F 29.66 in West 3.0 mph 23.0 mph 54 % 0.00 in
15:33 65.8 °F 48.7 °F 29.66 in WNW 4.0 mph 23.0 mph 54 % 0.00 in
15:38 65.7 °F 49.5 °F 29.67 in NNE 7.0 mph 24.0 mph 56 % 0.00 in
15:43 66.0 °F 49.8 °F 29.67 in SSW 4.0 mph 24.0 mph 56 % 0.00 in
15:48 65.5 °F 48.9 °F 29.68 in NW 7.0 mph 24.0 mph 55 % 0.00 in
15:53 64.9 °F 48.4 °F 29.68 in NNW 18.0 mph 22.0 mph 55 % 0.00 in
15:58 64.8 °F 47.7 °F 29.68 in NNW 8.0 mph 22.0 mph 54 % 0.00 in
16:03 64.6 °F 47.5 °F 29.68 in NW 14.0 mph 26.0 mph 54 % 0.00 in
16:08 64.6 °F 48.0 °F 29.69 in West 9.0 mph 26.0 mph 55 % 0.00 in
16:13 64.8 °F 48.2 °F 29.69 in NW 7.0 mph 26.0 mph 55 % 0.00 in
16:18 64.8 °F 48.2 °F 29.69 in WNW 9.0 mph 23.0 mph 55 % 0.00 in
16:23 64.8 °F 48.2 °F 29.69 in NW 4.0 mph 19.0 mph 55 % 0.00 in
16:28 64.8 °F 48.2 °F 29.70 in West 11.0 mph 23.0 mph 55 % 0.00 in
16:33 64.6 °F 48.0 °F 29.70 in East 2.0 mph 23.0 mph 55 % 0.00 in
16:38 64.6 °F 48.0 °F 29.70 in North 9.0 mph 23.0 mph 55 % 0.00 in
16:43 64.2 °F 47.7 °F 29.71 in West 15.0 mph 22.0 mph 55 % 0.00 in
16:48 64.2 °F 47.7 °F 29.71 in NNE 14.0 mph 23.0 mph 55 % 0.00 in
16:53 64.2 °F 48.2 °F 29.71 in NNW 6.0 mph 23.0 mph 56 % 0.00 in
16:58 64.2 °F 48.2 °F 29.72 in North 6.0 mph 23.0 mph 56 % 0.00 in
17:03 64.0 °F 48.6 °F 29.72 in ENE 2.0 mph 19.0 mph 57 % 0.00 in
17:08 64.0 °F 48.6 °F 29.72 in WNW 9.0 mph 19.0 mph 57 % 0.00 in
17:13 63.9 °F 48.4 °F 29.72 in North 3.0 mph 23.0 mph 57 % 0.00 in
17:18 63.9 °F 48.4 °F 29.72 in NW 2.0 mph 23.0 mph 57 % 0.00 in
17:23 63.7 °F 48.2 °F 29.72 in NNW 4.0 mph 23.0 mph 57 % 0.00 in
17:28 63.7 °F 48.2 °F 29.72 in West 13.0 mph 20.0 mph 57 % 0.00 in
17:33 63.5 °F 48.0 °F 29.73 in WSW 4.0 mph 20.0 mph 57 % 0.00 in
17:38 63.3 °F 47.8 °F 29.73 in NNW 12.0 mph 20.0 mph 57 % 0.00 in
17:43 63.3 °F 47.8 °F 29.73 in WNW 4.0 mph 19.0 mph 57 % 0.00 in
17:48 63.3 °F 47.8 °F 29.73 in NNW 7.0 mph 19.0 mph 57 % 0.00 in
17:53 63.1 °F 47.7 °F 29.74 in NW 7.0 mph 19.0 mph 57 % 0.00 in
17:58 63.1 °F 47.7 °F 29.74 in NW 10.0 mph 19.0 mph 57 % 0.00 in
18:03 63.0 °F 46.9 °F 29.74 in NW 9.0 mph 19.0 mph 56 % 0.00 in
18:08 63.1 °F 47.1 °F 29.75 in West 6.0 mph 14.0 mph 56 % 0.00 in
18:13 63.0 °F 46.9 °F 29.75 in NW 8.0 mph 18.0 mph 56 % 0.00 in
18:18 63.1 °F 46.8 °F 29.75 in North 7.0 mph 18.0 mph 55 % 0.00 in
18:23 63.0 °F 46.9 °F 29.76 in North 2.0 mph 18.0 mph 56 % 0.00 in
18:28 62.8 °F 46.9 °F 29.76 in North 3.0 mph 16.0 mph 56 % 0.00 in
18:34 62.8 °F 46.9 °F 29.76 in NE 5.0 mph 13.0 mph 56 % 0.00 in
18:39 63.0 °F 46.6 °F 29.77 in NNE 1.0 mph 20.0 mph 55 % 0.00 in
18:44 62.8 °F 46.9 °F 29.77 in WNW 5.0 mph 20.0 mph 56 % 0.00 in
18:49 62.6 °F 46.8 °F 29.77 in NE 1.0 mph 20.0 mph 56 % 0.00 in
18:54 62.6 °F 46.8 °F 29.78 in NNE 2.0 mph 16.0 mph 56 % 0.00 in
18:59 62.4 °F 46.0 °F 29.78 in WNW 4.0 mph 13.0 mph 55 % 0.00 in
19:04 62.6 °F 46.2 °F 29.78 in NNW 7.0 mph 13.0 mph 55 % 0.00 in
19:09 62.4 °F 46.0 °F 29.78 in WNW 7.0 mph 13.0 mph 55 % 0.00 in
19:14 62.4 °F 46.0 °F 29.79 in West 8.0 mph 13.0 mph 55 % 0.00 in
19:19 62.4 °F 45.5 °F 29.79 in West 2.0 mph 13.0 mph 54 % 0.00 in
19:20 62.4 °F 45.5 °F 29.79 in NNE 5.0 mph 13.0 mph 54 % 0.00 in
19:25 62.2 °F 45.3 °F 29.79 in West 4.0 mph 13.0 mph 54 % 0.00 in
19:30 62.2 °F 45.3 °F 29.79 in WNW 2.0 mph 13.0 mph 54 % 0.00 in
19:35 62.2 °F 45.0 °F 29.79 in WNW 4.0 mph 13.0 mph 53 % 0.00 in
19:40 62.4 °F 45.1 °F 29.80 in West 4.0 mph 10.0 mph 53 % 0.00 in
19:45 62.4 °F 44.6 °F 29.80 in West 5.0 mph 13.0 mph 52 % 0.00 in
19:50 62.8 °F 43.9 °F 29.80 in NNW 4.0 mph 13.0 mph 50 % 0.00 in
19:51 62.8 °F 44.4 °F 29.80 in North 2.0 mph 13.0 mph 51 % 0.00 in
19:56 62.8 °F 43.9 °F 29.80 in WNW 6.0 mph 13.0 mph 50 % 0.00 in
20:01 63.0 °F 43.5 °F 29.81 in NNW 11.0 mph 18.0 mph 49 % 0.00 in
20:06 62.8 °F 43.3 °F 29.81 in NNW 4.0 mph 18.0 mph 49 % 0.00 in
20:11 62.8 °F 43.3 °F 29.81 in NW 4.0 mph 18.0 mph 49 % 0.00 in
20:16 62.4 °F 43.5 °F 29.81 in NNW 5.0 mph 15.0 mph 50 % 0.00 in
20:21 62.4 °F 43.5 °F 29.81 in WNW 1.0 mph 15.0 mph 50 % 0.00 in
20:26 62.2 °F 43.3 °F 29.81 in NNW 2.0 mph 12.0 mph 50 % 0.00 in
20:31 62.2 °F 42.8 °F 29.82 in WNW 2.0 mph 14.0 mph 49 % 0.00 in
20:36 62.4 °F 43.0 °F 29.82 in NW 12.0 mph 14.0 mph 49 % 0.00 in
20:41 62.4 °F 42.4 °F 29.82 in WNW 8.0 mph 15.0 mph 48 % 0.00 in
20:46 62.4 °F 42.4 °F 29.83 in WNW 9.0 mph 21.0 mph 48 % 0.00 in
20:51 62.4 °F 42.4 °F 29.83 in NW 5.0 mph 21.0 mph 48 % 0.00 in
20:56 62.2 °F 42.3 °F 29.83 in NW 6.0 mph 21.0 mph 48 % 0.00 in
21:01 62.1 °F 42.6 °F 29.83 in NNW 10.0 mph 13.0 mph 49 % 0.00 in
21:06 62.2 °F 42.3 °F 29.83 in NW 3.0 mph 15.0 mph 48 % 0.00 in
21:11 62.2 °F 42.3 °F 29.84 in NNW 8.0 mph 15.0 mph 48 % 0.00 in
21:17 62.1 °F 42.1 °F 29.84 in NNE 4.0 mph 16.0 mph 48 % 0.00 in
21:22 62.1 °F 42.6 °F 29.84 in NW 5.0 mph 16.0 mph 49 % 0.00 in
21:27 62.1 °F 42.6 °F 29.84 in NW 8.0 mph 16.0 mph 49 % 0.00 in
21:32 61.9 °F 42.4 °F 29.84 in NNW 5.0 mph 16.0 mph 49 % 0.00 in
21:37 61.7 °F 42.3 °F 29.84 in NE 2.0 mph 16.0 mph 49 % 0.00 in
21:42 61.5 °F 42.3 °F 29.85 in NW 4.0 mph 16.0 mph 49 % 0.00 in
21:47 61.3 °F 42.1 °F 29.85 in NNW 5.0 mph 11.0 mph 49 % 0.00 in
21:52 61.2 °F 42.4 °F 29.86 in NW 2.0 mph 10.0 mph 50 % 0.00 in
21:57 61.2 °F 42.4 °F 29.86 in WNW 4.0 mph 9.0 mph 50 % 0.00 in
22:02 61.0 °F 42.3 °F 29.86 in NW 6.0 mph 9.0 mph 50 % 0.00 in
22:08 61.0 °F 42.3 °F 29.86 in North 6.0 mph 12.0 mph 50 % 0.00 in
22:13 60.8 °F 42.6 °F 29.87 in SSW 1.0 mph 13.0 mph 51 % 0.00 in
22:18 60.4 °F 42.3 °F 29.88 in NNE 1.0 mph 13.0 mph 51 % 0.00 in
22:23 60.1 °F 42.4 °F 29.88 in NW 3.0 mph 13.0 mph 52 % 0.00 in
22:28 60.3 °F 42.6 °F 29.89 in NNW 4.0 mph 10.0 mph 52 % 0.00 in
22:33 60.1 °F 42.4 °F 29.89 in NW 2.0 mph 9.0 mph 52 % 0.00 in
22:38 59.7 °F 42.1 °F 29.89 in NW 3.0 mph 9.0 mph 52 % 0.00 in
22:43 59.7 °F 42.6 °F 29.89 in North 3.0 mph 9.0 mph 53 % 0.00 in
22:48 59.5 °F 42.4 °F 29.89 in WNW 2.0 mph 9.0 mph 53 % 0.00 in
22:53 59.2 °F 42.6 °F 29.90 in NNW 1.0 mph 9.0 mph 54 % 0.00 in
22:58 58.8 °F 42.3 °F 29.89 in North 2.0 mph 6.0 mph 54 % 0.00 in
23:03 58.6 °F 42.1 °F 29.90 in WNW 2.0 mph 6.0 mph 54 % 0.00 in
23:08 58.8 °F 42.3 °F 29.90 in NNE 2.0 mph 8.0 mph 54 % 0.00 in
23:13 58.6 °F 42.1 °F 29.90 in NW 6.0 mph 8.0 mph 54 % 0.00 in
23:18 58.8 °F 42.3 °F 29.89 in NW 3.0 mph 12.0 mph 54 % 0.00 in
23:23 59.0 °F 41.9 °F 29.89 in WNW 5.0 mph 12.0 mph 53 % 0.00 in
23:28 58.8 °F 42.3 °F 29.89 in NNE 3.0 mph 12.0 mph 54 % 0.00 in
23:33 58.8 °F 42.3 °F 29.89 in NNW 2.0 mph 12.0 mph 54 % 0.00 in
23:38 58.6 °F 42.1 °F 29.89 in WNW 2.0 mph 10.0 mph 54 % 0.00 in
23:43 58.6 °F 42.1 °F 29.90 in North 2.0 mph 10.0 mph 54 % 0.00 in
23:48 58.5 °F 41.9 °F 29.90 in NW 3.0 mph 8.0 mph 54 % 0.00 in
23:53 58.5 °F 41.9 °F 29.89 in NNW 5.0 mph 8.0 mph 54 % 0.00 in
23:58 58.5 °F 41.9 °F 29.89 in NW 1.0 mph 9.0 mph 54 % 0.00 in
Spring, Texas: Villages of Bridgestone
Compliments of Weather Underground - 2.75 mb

Script developed by  Jim McMurry - jmcmurry@mwt.net Adapted for the template by  Wim van der Kuil - Leuven-Template.eu

You find our weather info also at:

UK Metoffice

WeatherCloud

Weather Underground

Mid-South Weather Network

AWEKAS

Citizen Weather Observer Program (CWOP)

HAMweather, WeatherForYou, PWS Weather

Equipment we use:

Weather-station
Davis Vantage Vue

Weather-program
Meteohub

Weather-server
Debian 7.9 x86 (Guest)

Provider
DreamHost

Davis Vantage Vue

Meteohub

Debian 7.9 x86 (Guest)

DreamHost